sensor_id;sensor_type;location;lat;lon;timestamp;P1;durP1;ratioP1;P2;durP2;ratioP2
69890;SDS011;57170;43.964;21.262;2023-06-24T00:02:13;20.95;;;18.23;;
69890;SDS011;57170;43.964;21.262;2023-06-24T00:04:39;24.13;;;16.85;;
69890;SDS011;57170;43.964;21.262;2023-06-24T00:07:05;19.20;;;15.60;;
69890;SDS011;57170;43.964;21.262;2023-06-24T00:09:31;23.58;;;17.30;;
69890;SDS011;57170;43.964;21.262;2023-06-24T00:11:58;21.77;;;17.63;;
69890;SDS011;57170;43.964;21.262;2023-06-24T00:14:25;21.27;;;17.00;;
69890;SDS011;57170;43.964;21.262;2023-06-24T00:16:51;19.88;;;16.88;;
69890;SDS011;57170;43.964;21.262;2023-06-24T00:19:18;25.52;;;18.00;;
69890;SDS011;57170;43.964;21.262;2023-06-24T00:21:45;28.50;;;17.50;;
69890;SDS011;57170;43.964;21.262;2023-06-24T00:24:11;41.45;;;16.60;;
69890;SDS011;57170;43.964;21.262;2023-06-24T00:26:37;39.25;;;17.25;;
69890;SDS011;57170;43.964;21.262;2023-06-24T00:29:03;35.95;;;15.20;;
69890;SDS011;57170;43.964;21.262;2023-06-24T00:31:29;53.60;;;15.80;;
69890;SDS011;57170;43.964;21.262;2023-06-24T00:33:55;34.58;;;14.90;;
69890;SDS011;57170;43.964;21.262;2023-06-24T00:36:21;49.30;;;16.45;;
69890;SDS011;57170;43.964;21.262;2023-06-24T00:38:47;38.72;;;13.40;;
69890;SDS011;57170;43.964;21.262;2023-06-24T00:41:14;49.17;;;15.82;;
69890;SDS011;57170;43.964;21.262;2023-06-24T00:43:42;47.35;;;16.33;;
69890;SDS011;57170;43.964;21.262;2023-06-24T00:46:09;58.75;;;15.10;;
69890;SDS011;57170;43.964;21.262;2023-06-24T00:48:35;41.67;;;14.68;;
69890;SDS011;57170;43.964;21.262;2023-06-24T00:51:01;50.28;;;12.95;;
69890;SDS011;57170;43.964;21.262;2023-06-24T00:53:27;41.78;;;12.18;;
69890;SDS011;57170;43.964;21.262;2023-06-24T00:55:54;46.10;;;11.70;;
69890;SDS011;57170;43.964;21.262;2023-06-24T00:58:21;42.58;;;11.52;;
69890;SDS011;57170;43.964;21.262;2023-06-24T01:00:48;43.80;;;12.10;;
69890;SDS011;57170;43.964;21.262;2023-06-24T01:03:22;35.00;;;10.32;;
69890;SDS011;57170;43.964;21.262;2023-06-24T01:05:48;33.50;;;11.02;;
69890;SDS011;57170;43.964;21.262;2023-06-24T01:08:15;28.23;;;10.52;;
69890;SDS011;57170;43.964;21.262;2023-06-24T01:10:41;31.77;;;10.00;;
69890;SDS011;57170;43.964;21.262;2023-06-24T01:13:08;25.38;;;10.52;;
69890;SDS011;57170;43.964;21.262;2023-06-24T01:15:34;25.58;;;10.07;;
69890;SDS011;57170;43.964;21.262;2023-06-24T01:18:10;32.90;;;10.38;;
69890;SDS011;57170;43.964;21.262;2023-06-24T01:23:22;32.65;;;10.77;;
69890;SDS011;57170;43.964;21.262;2023-06-24T01:33:50;25.63;;;10.65;;
69890;SDS011;57170;43.964;21.262;2023-06-24T01:36:19;20.75;;;10.23;;
69890;SDS011;57170;43.964;21.262;2023-06-24T01:38:48;25.80;;;9.13;;
69890;SDS011;57170;43.964;21.262;2023-06-24T01:41:15;23.05;;;9.73;;
69890;SDS011;57170;43.964;21.262;2023-06-24T01:43:43;18.33;;;8.52;;
69890;SDS011;57170;43.964;21.262;2023-06-24T01:46:10;17.23;;;8.90;;
69890;SDS011;57170;43.964;21.262;2023-06-24T01:48:38;28.73;;;9.88;;
69890;SDS011;57170;43.964;21.262;2023-06-24T01:51:07;19.60;;;8.60;;
69890;SDS011;57170;43.964;21.262;2023-06-24T01:53:37;20.33;;;9.38;;
69890;SDS011;57170;43.964;21.262;2023-06-24T01:56:05;21.60;;;8.57;;
69890;SDS011;57170;43.964;21.262;2023-06-24T01:58:33;23.17;;;9.25;;
69890;SDS011;57170;43.964;21.262;2023-06-24T02:01:00;24.55;;;8.90;;
69890;SDS011;57170;43.964;21.262;2023-06-24T02:03:27;17.02;;;8.75;;
69890;SDS011;57170;43.964;21.262;2023-06-24T02:05:54;13.18;;;7.38;;
69890;SDS011;57170;43.964;21.262;2023-06-24T02:08:20;19.90;;;8.35;;
69890;SDS011;57170;43.964;21.262;2023-06-24T02:10:47;19.85;;;8.23;;
69890;SDS011;57170;43.964;21.262;2023-06-24T02:13:14;20.00;;;7.75;;
69890;SDS011;57170;43.964;21.262;2023-06-24T02:15:41;16.55;;;8.18;;
69890;SDS011;57170;43.964;21.262;2023-06-24T02:18:08;16.38;;;7.25;;
69890;SDS011;57170;43.964;21.262;2023-06-24T02:20:35;20.15;;;9.20;;
69890;SDS011;57170;43.964;21.262;2023-06-24T02:23:04;18.85;;;8.10;;
69890;SDS011;57170;43.964;21.262;2023-06-24T02:25:30;16.02;;;8.90;;
69890;SDS011;57170;43.964;21.262;2023-06-24T02:27:57;16.10;;;8.52;;
69890;SDS011;57170;43.964;21.262;2023-06-24T02:30:23;16.90;;;8.50;;
69890;SDS011;57170;43.964;21.262;2023-06-24T02:32:49;18.55;;;8.55;;
69890;SDS011;57170;43.964;21.262;2023-06-24T02:35:16;14.10;;;8.23;;
69890;SDS011;57170;43.964;21.262;2023-06-24T02:37:42;15.82;;;8.15;;
69890;SDS011;57170;43.964;21.262;2023-06-24T02:40:08;18.63;;;9.40;;
69890;SDS011;57170;43.964;21.262;2023-06-24T02:42:35;18.25;;;9.27;;
69890;SDS011;57170;43.964;21.262;2023-06-24T02:45:01;14.95;;;9.18;;
69890;SDS011;57170;43.964;21.262;2023-06-24T02:47:28;19.52;;;8.57;;
69890;SDS011;57170;43.964;21.262;2023-06-24T02:49:54;16.58;;;8.68;;
69890;SDS011;57170;43.964;21.262;2023-06-24T02:52:23;12.13;;;7.55;;
69890;SDS011;57170;43.964;21.262;2023-06-24T02:54:53;13.00;;;8.35;;
69890;SDS011;57170;43.964;21.262;2023-06-24T02:57:19;17.17;;;8.75;;
69890;SDS011;57170;43.964;21.262;2023-06-24T02:59:46;13.07;;;9.20;;
69890;SDS011;57170;43.964;21.262;2023-06-24T03:02:13;17.63;;;8.70;;
69890;SDS011;57170;43.964;21.262;2023-06-24T03:04:39;14.82;;;8.20;;
69890;SDS011;57170;43.964;21.262;2023-06-24T03:07:06;12.15;;;7.45;;
69890;SDS011;57170;43.964;21.262;2023-06-24T03:09:35;17.08;;;8.25;;
69890;SDS011;57170;43.964;21.262;2023-06-24T03:12:01;16.50;;;8.18;;
69890;SDS011;57170;43.964;21.262;2023-06-24T03:14:27;12.85;;;8.55;;
69890;SDS011;57170;43.964;21.262;2023-06-24T03:16:53;18.27;;;9.00;;
69890;SDS011;57170;43.964;21.262;2023-06-24T03:19:19;14.38;;;7.55;;
69890;SDS011;57170;43.964;21.262;2023-06-24T03:21:46;17.00;;;8.68;;
69890;SDS011;57170;43.964;21.262;2023-06-24T03:24:12;17.95;;;9.43;;
69890;SDS011;57170;43.964;21.262;2023-06-24T03:26:39;13.70;;;9.35;;
69890;SDS011;57170;43.964;21.262;2023-06-24T03:29:05;17.92;;;7.60;;
69890;SDS011;57170;43.964;21.262;2023-06-24T03:31:34;10.18;;;7.68;;
69890;SDS011;57170;43.964;21.262;2023-06-24T03:34:00;11.57;;;8.77;;
69890;SDS011;57170;43.964;21.262;2023-06-24T03:36:26;16.98;;;9.43;;
69890;SDS011;57170;43.964;21.262;2023-06-24T03:38:52;14.43;;;9.32;;
69890;SDS011;57170;43.964;21.262;2023-06-24T03:41:18;13.82;;;8.20;;
69890;SDS011;57170;43.964;21.262;2023-06-24T03:43:45;16.17;;;9.52;;
69890;SDS011;57170;43.964;21.262;2023-06-24T03:46:11;14.95;;;7.85;;
69890;SDS011;57170;43.964;21.262;2023-06-24T03:48:37;16.75;;;7.28;;
69890;SDS011;57170;43.964;21.262;2023-06-24T03:51:03;19.30;;;9.30;;
69890;SDS011;57170;43.964;21.262;2023-06-24T03:53:30;15.20;;;7.53;;
69890;SDS011;57170;43.964;21.262;2023-06-24T03:55:56;12.68;;;7.53;;
69890;SDS011;57170;43.964;21.262;2023-06-24T03:58:22;14.90;;;8.30;;
69890;SDS011;57170;43.964;21.262;2023-06-24T04:00:48;16.95;;;8.75;;
69890;SDS011;57170;43.964;21.262;2023-06-24T04:03:14;16.38;;;7.82;;
69890;SDS011;57170;43.964;21.262;2023-06-24T04:05:44;12.10;;;7.80;;
69890;SDS011;57170;43.964;21.262;2023-06-24T04:08:10;19.10;;;8.60;;
69890;SDS011;57170;43.964;21.262;2023-06-24T04:10:36;11.27;;;7.65;;
69890;SDS011;57170;43.964;21.262;2023-06-24T04:13:02;14.73;;;7.72;;
69890;SDS011;57170;43.964;21.262;2023-06-24T04:15:28;12.68;;;8.23;;
69890;SDS011;57170;43.964;21.262;2023-06-24T04:17:56;11.80;;;7.32;;
69890;SDS011;57170;43.964;21.262;2023-06-24T04:20:22;12.63;;;8.13;;
69890;SDS011;57170;43.964;21.262;2023-06-24T04:22:48;13.43;;;7.88;;
69890;SDS011;57170;43.964;21.262;2023-06-24T04:25:14;14.27;;;8.77;;
69890;SDS011;57170;43.964;21.262;2023-06-24T04:27:40;18.13;;;9.23;;
69890;SDS011;57170;43.964;21.262;2023-06-24T04:30:07;20.38;;;8.45;;
69890;SDS011;57170;43.964;21.262;2023-06-24T04:32:33;20.35;;;8.90;;
69890;SDS011;57170;43.964;21.262;2023-06-24T04:34:59;19.73;;;9.05;;
69890;SDS011;57170;43.964;21.262;2023-06-24T04:37:26;17.17;;;9.13;;
69890;SDS011;57170;43.964;21.262;2023-06-24T04:39:52;14.70;;;9.70;;
69890;SDS011;57170;43.964;21.262;2023-06-24T04:42:18;19.08;;;11.20;;
69890;SDS011;57170;43.964;21.262;2023-06-24T04:44:44;18.83;;;11.25;;
69890;SDS011;57170;43.964;21.262;2023-06-24T04:47:10;19.08;;;11.95;;
69890;SDS011;57170;43.964;21.262;2023-06-24T04:49:38;19.90;;;13.05;;
69890;SDS011;57170;43.964;21.262;2023-06-24T04:52:05;19.35;;;13.63;;
69890;SDS011;57170;43.964;21.262;2023-06-24T04:54:31;18.88;;;14.00;;
69890;SDS011;57170;43.964;21.262;2023-06-24T04:56:57;23.95;;;13.07;;
69890;SDS011;57170;43.964;21.262;2023-06-24T04:59:24;21.05;;;14.13;;
69890;SDS011;57170;43.964;21.262;2023-06-24T05:01:50;20.13;;;10.35;;
69890;SDS011;57170;43.964;21.262;2023-06-24T05:04:16;17.25;;;10.98;;
69890;SDS011;57170;43.964;21.262;2023-06-24T05:06:42;18.40;;;11.00;;
69890;SDS011;57170;43.964;21.262;2023-06-24T05:09:08;17.23;;;9.57;;
69890;SDS011;57170;43.964;21.262;2023-06-24T05:11:38;15.07;;;11.63;;
69890;SDS011;57170;43.964;21.262;2023-06-24T05:14:04;18.73;;;10.40;;
69890;SDS011;57170;43.964;21.262;2023-06-24T05:16:30;16.08;;;10.77;;
69890;SDS011;57170;43.964;21.262;2023-06-24T05:18:56;15.05;;;9.85;;
69890;SDS011;57170;43.964;21.262;2023-06-24T05:21:23;18.95;;;10.48;;
69890;SDS011;57170;43.964;21.262;2023-06-24T05:23:49;16.05;;;10.45;;
69890;SDS011;57170;43.964;21.262;2023-06-24T05:26:15;18.42;;;10.63;;
69890;SDS011;57170;43.964;21.262;2023-06-24T05:28:41;16.77;;;11.77;;
69890;SDS011;57170;43.964;21.262;2023-06-24T05:31:07;16.10;;;11.65;;
69890;SDS011;57170;43.964;21.262;2023-06-24T05:33:33;23.50;;;13.35;;
69890;SDS011;57170;43.964;21.262;2023-06-24T05:35:59;22.48;;;11.93;;
69890;SDS011;57170;43.964;21.262;2023-06-24T05:38:25;23.35;;;13.23;;
69890;SDS011;57170;43.964;21.262;2023-06-24T05:40:51;23.27;;;12.13;;
69890;SDS011;57170;43.964;21.262;2023-06-24T05:43:17;15.73;;;12.55;;
69890;SDS011;57170;43.964;21.262;2023-06-24T05:45:44;20.15;;;14.27;;
69890;SDS011;57170;43.964;21.262;2023-06-24T05:48:10;21.48;;;14.90;;
69890;SDS011;57170;43.964;21.262;2023-06-24T05:50:36;26.23;;;15.07;;
69890;SDS011;57170;43.964;21.262;2023-06-24T05:53:02;23.52;;;14.35;;
69890;SDS011;57170;43.964;21.262;2023-06-24T05:55:28;22.52;;;13.48;;
69890;SDS011;57170;43.964;21.262;2023-06-24T05:57:54;25.73;;;13.90;;
69890;SDS011;57170;43.964;21.262;2023-06-24T06:00:20;21.10;;;13.75;;
69890;SDS011;57170;43.964;21.262;2023-06-24T06:02:46;28.75;;;14.77;;
69890;SDS011;57170;43.964;21.262;2023-06-24T06:05:12;27.95;;;13.68;;
69890;SDS011;57170;43.964;21.262;2023-06-24T06:07:39;22.48;;;13.40;;
69890;SDS011;57170;43.964;21.262;2023-06-24T06:10:05;21.30;;;13.40;;
69890;SDS011;57170;43.964;21.262;2023-06-24T06:12:32;23.35;;;13.13;;
69890;SDS011;57170;43.964;21.262;2023-06-24T06:14:58;27.48;;;13.68;;
69890;SDS011;57170;43.964;21.262;2023-06-24T06:17:24;17.38;;;11.32;;
69890;SDS011;57170;43.964;21.262;2023-06-24T06:19:50;16.33;;;11.00;;
69890;SDS011;57170;43.964;21.262;2023-06-24T06:22:16;22.33;;;11.45;;
69890;SDS011;57170;43.964;21.262;2023-06-24T06:24:43;15.80;;;9.98;;
69890;SDS011;57170;43.964;21.262;2023-06-24T06:27:09;13.15;;;9.25;;
69890;SDS011;57170;43.964;21.262;2023-06-24T06:29:36;14.15;;;7.80;;
69890;SDS011;57170;43.964;21.262;2023-06-24T06:32:02;17.45;;;9.55;;
69890;SDS011;57170;43.964;21.262;2023-06-24T06:34:29;18.73;;;9.82;;
69890;SDS011;57170;43.964;21.262;2023-06-24T06:36:55;19.65;;;9.85;;
69890;SDS011;57170;43.964;21.262;2023-06-24T06:39:21;18.65;;;9.73;;
69890;SDS011;57170;43.964;21.262;2023-06-24T06:41:47;14.57;;;8.85;;
69890;SDS011;57170;43.964;21.262;2023-06-24T06:44:13;13.98;;;8.45;;
69890;SDS011;57170;43.964;21.262;2023-06-24T06:46:39;15.35;;;7.85;;
69890;SDS011;57170;43.964;21.262;2023-06-24T06:49:05;18.60;;;7.43;;
69890;SDS011;57170;43.964;21.262;2023-06-24T06:51:31;15.13;;;7.93;;
69890;SDS011;57170;43.964;21.262;2023-06-24T06:53:59;20.45;;;8.30;;
69890;SDS011;57170;43.964;21.262;2023-06-24T06:56:25;11.93;;;7.53;;
69890;SDS011;57170;43.964;21.262;2023-06-24T06:58:51;10.93;;;6.90;;
69890;SDS011;57170;43.964;21.262;2023-06-24T07:01:18;12.00;;;7.28;;
69890;SDS011;57170;43.964;21.262;2023-06-24T07:03:44;14.90;;;7.28;;
69890;SDS011;57170;43.964;21.262;2023-06-24T07:06:10;10.05;;;6.63;;
69890;SDS011;57170;43.964;21.262;2023-06-24T07:08:36;9.75;;;6.07;;
69890;SDS011;57170;43.964;21.262;2023-06-24T07:11:02;12.70;;;6.35;;
69890;SDS011;57170;43.964;21.262;2023-06-24T07:13:29;11.15;;;7.20;;
69890;SDS011;57170;43.964;21.262;2023-06-24T07:15:55;11.70;;;7.32;;
69890;SDS011;57170;43.964;21.262;2023-06-24T07:18:21;12.98;;;6.78;;
69890;SDS011;57170;43.964;21.262;2023-06-24T07:20:47;10.75;;;6.85;;
69890;SDS011;57170;43.964;21.262;2023-06-24T07:23:14;9.23;;;7.38;;
69890;SDS011;57170;43.964;21.262;2023-06-24T07:25:40;12.93;;;7.38;;
69890;SDS011;57170;43.964;21.262;2023-06-24T07:28:06;15.32;;;7.13;;
69890;SDS011;57170;43.964;21.262;2023-06-24T07:30:32;11.43;;;7.28;;
69890;SDS011;57170;43.964;21.262;2023-06-24T07:32:58;12.35;;;8.52;;
69890;SDS011;57170;43.964;21.262;2023-06-24T07:35:30;13.85;;;8.48;;
69890;SDS011;57170;43.964;21.262;2023-06-24T07:37:56;16.65;;;9.13;;
69890;SDS011;57170;43.964;21.262;2023-06-24T07:40:22;14.73;;;7.30;;
69890;SDS011;57170;43.964;21.262;2023-06-24T07:42:48;13.32;;;8.75;;
69890;SDS011;57170;43.964;21.262;2023-06-24T07:45:14;11.13;;;8.73;;
69890;SDS011;57170;43.964;21.262;2023-06-24T07:47:40;20.48;;;9.23;;
69890;SDS011;57170;43.964;21.262;2023-06-24T07:50:06;15.00;;;9.25;;
69890;SDS011;57170;43.964;21.262;2023-06-24T07:52:35;13.57;;;9.07;;
69890;SDS011;57170;43.964;21.262;2023-06-24T07:55:02;15.38;;;9.85;;
69890;SDS011;57170;43.964;21.262;2023-06-24T07:57:28;15.07;;;8.57;;
69890;SDS011;57170;43.964;21.262;2023-06-24T07:59:54;14.25;;;9.75;;
69890;SDS011;57170;43.964;21.262;2023-06-24T08:02:21;15.80;;;9.32;;
69890;SDS011;57170;43.964;21.262;2023-06-24T08:04:49;15.30;;;10.00;;
69890;SDS011;57170;43.964;21.262;2023-06-24T08:07:15;15.45;;;11.40;;
69890;SDS011;57170;43.964;21.262;2023-06-24T08:09:41;13.35;;;10.15;;
69890;SDS011;57170;43.964;21.262;2023-06-24T08:12:07;13.18;;;10.93;;
69890;SDS011;57170;43.964;21.262;2023-06-24T08:14:33;16.67;;;11.18;;
69890;SDS011;57170;43.964;21.262;2023-06-24T08:17:00;13.07;;;11.35;;
69890;SDS011;57170;43.964;21.262;2023-06-24T08:19:26;17.83;;;11.23;;
69890;SDS011;57170;43.964;21.262;2023-06-24T08:21:52;13.45;;;10.73;;
69890;SDS011;57170;43.964;21.262;2023-06-24T08:24:18;15.20;;;11.13;;
69890;SDS011;57170;43.964;21.262;2023-06-24T08:26:44;22.17;;;11.90;;
69890;SDS011;57170;43.964;21.262;2023-06-24T08:29:11;13.98;;;10.32;;
69890;SDS011;57170;43.964;21.262;2023-06-24T08:31:37;16.63;;;10.70;;
69890;SDS011;57170;43.964;21.262;2023-06-24T08:34:03;16.05;;;11.63;;
69890;SDS011;57170;43.964;21.262;2023-06-24T08:36:31;17.00;;;11.13;;
69890;SDS011;57170;43.964;21.262;2023-06-24T08:38:57;17.08;;;12.95;;
69890;SDS011;57170;43.964;21.262;2023-06-24T08:41:23;18.52;;;11.02;;
69890;SDS011;57170;43.964;21.262;2023-06-24T08:43:50;13.77;;;12.38;;
69890;SDS011;57170;43.964;21.262;2023-06-24T08:46:16;18.05;;;12.93;;
69890;SDS011;57170;43.964;21.262;2023-06-24T08:48:44;21.70;;;14.50;;
69890;SDS011;57170;43.964;21.262;2023-06-24T08:51:11;17.50;;;13.18;;
69890;SDS011;57170;43.964;21.262;2023-06-24T08:53:39;21.52;;;15.38;;
69890;SDS011;57170;43.964;21.262;2023-06-24T08:56:07;18.08;;;15.43;;
69890;SDS011;57170;43.964;21.262;2023-06-24T08:58:33;17.67;;;13.93;;
69890;SDS011;57170;43.964;21.262;2023-06-24T09:00:59;20.80;;;16.25;;
69890;SDS011;57170;43.964;21.262;2023-06-24T09:03:26;17.25;;;14.00;;
69890;SDS011;57170;43.964;21.262;2023-06-24T09:05:52;18.65;;;14.93;;
69890;SDS011;57170;43.964;21.262;2023-06-24T09:08:18;22.00;;;15.10;;
69890;SDS011;57170;43.964;21.262;2023-06-24T09:10:46;32.55;;;17.55;;
69890;SDS011;57170;43.964;21.262;2023-06-24T09:13:19;23.27;;;17.35;;
69890;SDS011;57170;43.964;21.262;2023-06-24T09:15:45;24.30;;;17.92;;
69890;SDS011;57170;43.964;21.262;2023-06-24T09:18:11;27.13;;;20.50;;
69890;SDS011;57170;43.964;21.262;2023-06-24T09:20:40;47.50;;;23.83;;
69890;SDS011;57170;43.964;21.262;2023-06-24T09:23:09;27.50;;;23.40;;
69890;SDS011;57170;43.964;21.262;2023-06-24T09:25:36;28.60;;;24.90;;
69890;SDS011;57170;43.964;21.262;2023-06-24T09:28:02;34.05;;;24.73;;
69890;SDS011;57170;43.964;21.262;2023-06-24T09:30:29;42.47;;;27.80;;
69890;SDS011;57170;43.964;21.262;2023-06-24T09:32:55;35.35;;;31.25;;
69890;SDS011;57170;43.964;21.262;2023-06-24T09:35:22;34.13;;;30.58;;
69890;SDS011;57170;43.964;21.262;2023-06-24T09:37:49;31.83;;;28.48;;
69890;SDS011;57170;43.964;21.262;2023-06-24T09:40:15;34.58;;;27.40;;
69890;SDS011;57170;43.964;21.262;2023-06-24T09:42:51;34.22;;;30.35;;
69890;SDS011;57170;43.964;21.262;2023-06-24T09:45:24;34.83;;;29.02;;
69890;SDS011;57170;43.964;21.262;2023-06-24T09:47:51;39.78;;;32.00;;
69890;SDS011;57170;43.964;21.262;2023-06-24T09:50:17;34.58;;;29.98;;
69890;SDS011;57170;43.964;21.262;2023-06-24T09:52:44;35.28;;;31.55;;
69890;SDS011;57170;43.964;21.262;2023-06-24T09:55:13;39.63;;;31.77;;
69890;SDS011;57170;43.964;21.262;2023-06-24T09:57:40;41.13;;;31.92;;
69890;SDS011;57170;43.964;21.262;2023-06-24T10:00:07;47.22;;;35.35;;
69890;SDS011;57170;43.964;21.262;2023-06-24T10:02:35;48.00;;;34.00;;
69890;SDS011;57170;43.964;21.262;2023-06-24T10:05:01;44.10;;;37.58;;
69890;SDS011;57170;43.964;21.262;2023-06-24T10:07:28;42.08;;;37.47;;
69890;SDS011;57170;43.964;21.262;2023-06-24T10:09:54;41.83;;;34.70;;
69890;SDS011;57170;43.964;21.262;2023-06-24T10:12:20;44.75;;;36.63;;
69890;SDS011;57170;43.964;21.262;2023-06-24T10:14:46;43.92;;;37.42;;
69890;SDS011;57170;43.964;21.262;2023-06-24T10:17:12;43.47;;;38.20;;
69890;SDS011;57170;43.964;21.262;2023-06-24T10:19:39;47.80;;;39.22;;
69890;SDS011;57170;43.964;21.262;2023-06-24T10:22:09;42.63;;;37.17;;
69890;SDS011;57170;43.964;21.262;2023-06-24T10:24:39;46.97;;;37.10;;
69890;SDS011;57170;43.964;21.262;2023-06-24T10:27:16;43.42;;;37.20;;
69890;SDS011;57170;43.964;21.262;2023-06-24T10:29:46;43.78;;;37.97;;
69890;SDS011;57170;43.964;21.262;2023-06-24T10:32:12;49.95;;;40.20;;
69890;SDS011;57170;43.964;21.262;2023-06-24T10:34:42;49.42;;;40.58;;
69890;SDS011;57170;43.964;21.262;2023-06-24T10:44:49;44.75;;;38.95;;
69890;SDS011;57170;43.964;21.262;2023-06-24T10:47:16;50.58;;;40.42;;
69890;SDS011;57170;43.964;21.262;2023-06-24T10:49:42;55.35;;;41.50;;
69890;SDS011;57170;43.964;21.262;2023-06-24T10:52:09;51.13;;;41.63;;
69890;SDS011;57170;43.964;21.262;2023-06-24T10:54:38;45.55;;;40.63;;
69890;SDS011;57170;43.964;21.262;2023-06-24T10:57:06;48.53;;;39.85;;
69890;SDS011;57170;43.964;21.262;2023-06-24T10:59:35;57.35;;;41.35;;
69890;SDS011;57170;43.964;21.262;2023-06-24T11:02:02;52.90;;;41.58;;
69890;SDS011;57170;43.964;21.262;2023-06-24T11:04:28;53.13;;;39.45;;
69890;SDS011;57170;43.964;21.262;2023-06-24T11:07:00;48.60;;;41.85;;
69890;SDS011;57170;43.964;21.262;2023-06-24T11:09:27;52.03;;;42.97;;
69890;SDS011;57170;43.964;21.262;2023-06-24T11:11:53;50.15;;;42.55;;
69890;SDS011;57170;43.964;21.262;2023-06-24T11:14:19;48.67;;;39.67;;
69890;SDS011;57170;43.964;21.262;2023-06-24T11:16:45;53.72;;;43.42;;
69890;SDS011;57170;43.964;21.262;2023-06-24T11:19:12;51.15;;;40.90;;
69890;SDS011;57170;43.964;21.262;2023-06-24T11:21:38;49.10;;;41.15;;
69890;SDS011;57170;43.964;21.262;2023-06-24T11:24:04;54.85;;;42.25;;
69890;SDS011;57170;43.964;21.262;2023-06-24T11:26:31;49.05;;;41.75;;
69890;SDS011;57170;43.964;21.262;2023-06-24T11:28:58;48.47;;;43.13;;
69890;SDS011;57170;43.964;21.262;2023-06-24T11:31:27;50.75;;;40.78;;
69890;SDS011;57170;43.964;21.262;2023-06-24T11:33:53;52.47;;;42.38;;
69890;SDS011;57170;43.964;21.262;2023-06-24T11:36:19;50.75;;;42.40;;
69890;SDS011;57170;43.964;21.262;2023-06-24T11:38:46;51.35;;;41.63;;
69890;SDS011;57170;43.964;21.262;2023-06-24T11:41:12;45.78;;;38.75;;
69890;SDS011;57170;43.964;21.262;2023-06-24T11:43:45;46.15;;;41.00;;
69890;SDS011;57170;43.964;21.262;2023-06-24T11:46:20;46.42;;;41.28;;
69890;SDS011;57170;43.964;21.262;2023-06-24T11:48:46;47.72;;;40.55;;
69890;SDS011;57170;43.964;21.262;2023-06-24T11:51:13;45.00;;;39.70;;
69890;SDS011;57170;43.964;21.262;2023-06-24T11:53:43;47.55;;;41.28;;
69890;SDS011;57170;43.964;21.262;2023-06-24T11:56:09;46.50;;;41.22;;
69890;SDS011;57170;43.964;21.262;2023-06-24T11:58:35;43.63;;;38.22;;
69890;SDS011;57170;43.964;21.262;2023-06-24T12:01:02;49.50;;;41.70;;
69890;SDS011;57170;43.964;21.262;2023-06-24T12:03:32;50.35;;;43.35;;
69890;SDS011;57170;43.964;21.262;2023-06-24T12:05:59;49.55;;;41.17;;
69890;SDS011;57170;43.964;21.262;2023-06-24T12:08:25;48.58;;;39.53;;
69890;SDS011;57170;43.964;21.262;2023-06-24T12:10:51;44.35;;;39.38;;
69890;SDS011;57170;43.964;21.262;2023-06-24T12:13:18;47.53;;;38.38;;
69890;SDS011;57170;43.964;21.262;2023-06-24T12:15:44;44.40;;;39.03;;
69890;SDS011;57170;43.964;21.262;2023-06-24T12:18:11;61.70;;;41.85;;
69890;SDS011;57170;43.964;21.262;2023-06-24T12:20:38;45.05;;;39.05;;
69890;SDS011;57170;43.964;21.262;2023-06-24T12:23:04;44.03;;;38.40;;
69890;SDS011;57170;43.964;21.262;2023-06-24T12:25:30;45.58;;;39.55;;
69890;SDS011;57170;43.964;21.262;2023-06-24T12:27:57;43.40;;;37.45;;
69890;SDS011;57170;43.964;21.262;2023-06-24T12:30:24;47.22;;;39.33;;
69890;SDS011;57170;43.964;21.262;2023-06-24T12:32:50;42.17;;;37.67;;
69890;SDS011;57170;43.964;21.262;2023-06-24T12:35:17;40.50;;;36.05;;
69890;SDS011;57170;43.964;21.262;2023-06-24T12:37:43;44.90;;;37.15;;
69890;SDS011;57170;43.964;21.262;2023-06-24T12:40:10;42.85;;;37.50;;
69890;SDS011;57170;43.964;21.262;2023-06-24T12:42:36;40.90;;;36.45;;
69890;SDS011;57170;43.964;21.262;2023-06-24T12:45:02;44.22;;;38.88;;
69890;SDS011;57170;43.964;21.262;2023-06-24T12:47:29;42.33;;;37.70;;
69890;SDS011;57170;43.964;21.262;2023-06-24T12:49:55;40.78;;;36.50;;
69890;SDS011;57170;43.964;21.262;2023-06-24T12:52:21;39.95;;;35.92;;
69890;SDS011;57170;43.964;21.262;2023-06-24T12:54:47;37.33;;;33.45;;
69890;SDS011;57170;43.964;21.262;2023-06-24T12:57:14;36.63;;;32.95;;
69890;SDS011;57170;43.964;21.262;2023-06-24T12:59:41;39.70;;;35.63;;
69890;SDS011;57170;43.964;21.262;2023-06-24T13:02:07;42.95;;;34.05;;
69890;SDS011;57170;43.964;21.262;2023-06-24T13:04:33;36.17;;;32.45;;
69890;SDS011;57170;43.964;21.262;2023-06-24T13:06:59;34.58;;;31.17;;
69890;SDS011;57170;43.964;21.262;2023-06-24T13:09:25;38.47;;;33.88;;
69890;SDS011;57170;43.964;21.262;2023-06-24T13:11:51;36.17;;;32.53;;
69890;SDS011;57170;43.964;21.262;2023-06-24T13:14:18;35.53;;;31.52;;
69890;SDS011;57170;43.964;21.262;2023-06-24T13:16:44;35.25;;;30.63;;
69890;SDS011;57170;43.964;21.262;2023-06-24T13:19:10;33.33;;;30.13;;
69890;SDS011;57170;43.964;21.262;2023-06-24T13:21:36;32.95;;;29.85;;
69890;SDS011;57170;43.964;21.262;2023-06-24T13:24:02;31.20;;;27.88;;
69890;SDS011;57170;43.964;21.262;2023-06-24T13:26:28;29.45;;;26.60;;
69890;SDS011;57170;43.964;21.262;2023-06-24T13:28:54;27.60;;;24.83;;
69890;SDS011;57170;43.964;21.262;2023-06-24T13:31:21;26.30;;;23.83;;
69890;SDS011;57170;43.964;21.262;2023-06-24T13:33:47;25.00;;;22.58;;
69890;SDS011;57170;43.964;21.262;2023-06-24T13:36:30;26.67;;;23.83;;
69890;SDS011;57170;43.964;21.262;2023-06-24T13:38:57;26.95;;;24.33;;
69890;SDS011;57170;43.964;21.262;2023-06-24T13:41:23;27.27;;;22.98;;
69890;SDS011;57170;43.964;21.262;2023-06-24T13:43:52;27.52;;;24.75;;
69890;SDS011;57170;43.964;21.262;2023-06-24T13:46:18;25.98;;;23.33;;
69890;SDS011;57170;43.964;21.262;2023-06-24T13:48:44;24.60;;;22.23;;
69890;SDS011;57170;43.964;21.262;2023-06-24T13:51:10;26.98;;;24.23;;
69890;SDS011;57170;43.964;21.262;2023-06-24T13:53:36;25.35;;;22.85;;
69890;SDS011;57170;43.964;21.262;2023-06-24T13:56:03;26.38;;;21.35;;
69890;SDS011;57170;43.964;21.262;2023-06-24T13:58:29;23.35;;;20.88;;
69890;SDS011;57170;43.964;21.262;2023-06-24T14:00:55;26.17;;;22.08;;
69890;SDS011;57170;43.964;21.262;2023-06-24T14:03:21;24.83;;;22.20;;
69890;SDS011;57170;43.964;21.262;2023-06-24T14:05:47;23.02;;;20.60;;
69890;SDS011;57170;43.964;21.262;2023-06-24T14:08:13;21.45;;;19.40;;
69890;SDS011;57170;43.964;21.262;2023-06-24T14:10:39;23.23;;;20.52;;
69890;SDS011;57170;43.964;21.262;2023-06-24T14:13:05;24.23;;;21.90;;
69890;SDS011;57170;43.964;21.262;2023-06-24T14:15:31;21.20;;;19.10;;
69890;SDS011;57170;43.964;21.262;2023-06-24T14:17:57;20.50;;;18.60;;
69890;SDS011;57170;43.964;21.262;2023-06-24T14:20:24;25.40;;;20.50;;
69890;SDS011;57170;43.964;21.262;2023-06-24T14:22:50;23.75;;;20.80;;
69890;SDS011;57170;43.964;21.262;2023-06-24T14:25:16;21.45;;;19.15;;
69890;SDS011;57170;43.964;21.262;2023-06-24T14:27:42;22.98;;;20.58;;
69890;SDS011;57170;43.964;21.262;2023-06-24T14:30:08;21.05;;;18.92;;